sensor_id;sensor_type;location;lat;lon;timestamp;temperature;humidity
19039;DHT22;9652;49.014;12.052;2023-05-14T00:02:23;14.20;64.80
19039;DHT22;9652;49.014;12.052;2023-05-14T00:04:51;14.20;65.00
19039;DHT22;9652;49.014;12.052;2023-05-14T00:07:18;14.10;65.40
19039;DHT22;9652;49.014;12.052;2023-05-14T00:09:45;14.10;65.60
19039;DHT22;9652;49.014;12.052;2023-05-14T00:12:12;14.10;66.00
19039;DHT22;9652;49.014;12.052;2023-05-14T00:14:39;14.10;66.20
19039;DHT22;9652;49.014;12.052;2023-05-14T00:17:06;14.20;66.40
19039;DHT22;9652;49.014;12.052;2023-05-14T00:19:33;14.20;66.50
19039;DHT22;9652;49.014;12.052;2023-05-14T00:22:02;14.30;66.50
19039;DHT22;9652;49.014;12.052;2023-05-14T00:24:29;14.30;66.50
19039;DHT22;9652;49.014;12.052;2023-05-14T00:26:56;14.40;66.50
19039;DHT22;9652;49.014;12.052;2023-05-14T00:29:23;14.40;66.60
19039;DHT22;9652;49.014;12.052;2023-05-14T00:31:50;14.50;66.80
19039;DHT22;9652;49.014;12.052;2023-05-14T00:34:17;14.50;66.70
19039;DHT22;9652;49.014;12.052;2023-05-14T00:36:44;14.50;66.60
19039;DHT22;9652;49.014;12.052;2023-05-14T00:39:13;14.60;66.70
19039;DHT22;9652;49.014;12.052;2023-05-14T00:41:40;14.70;66.70
19039;DHT22;9652;49.014;12.052;2023-05-14T00:44:07;14.70;66.60
19039;DHT22;9652;49.014;12.052;2023-05-14T00:46:34;14.80;66.60
19039;DHT22;9652;49.014;12.052;2023-05-14T00:49:02;14.80;66.40
19039;DHT22;9652;49.014;12.052;2023-05-14T00:51:29;14.80;66.20
19039;DHT22;9652;49.014;12.052;2023-05-14T00:53:56;14.90;66.20
19039;DHT22;9652;49.014;12.052;2023-05-14T00:56:25;14.90;66.10
19039;DHT22;9652;49.014;12.052;2023-05-14T00:58:53;15.00;66.20
19039;DHT22;9652;49.014;12.052;2023-05-14T01:01:20;15.00;66.10
19039;DHT22;9652;49.014;12.052;2023-05-14T01:03:47;15.10;66.10
19039;DHT22;9652;49.014;12.052;2023-05-14T01:06:22;15.00;65.80
19039;DHT22;9652;49.014;12.052;2023-05-14T01:09:00;15.10;65.90
19039;DHT22;9652;49.014;12.052;2023-05-14T01:11:39;15.10;65.90
19039;DHT22;9652;49.014;12.052;2023-05-14T01:14:15;15.10;65.90
19039;DHT22;9652;49.014;12.052;2023-05-14T01:16:49;15.10;65.70
19039;DHT22;9652;49.014;12.052;2023-05-14T01:19:21;15.10;65.60
19039;DHT22;9652;49.014;12.052;2023-05-14T01:21:56;15.20;65.70
19039;DHT22;9652;49.014;12.052;2023-05-14T01:24:23;15.20;65.60
19039;DHT22;9652;49.014;12.052;2023-05-14T01:26:51;15.20;65.60
19039;DHT22;9652;49.014;12.052;2023-05-14T01:29:21;15.20;65.60
19039;DHT22;9652;49.014;12.052;2023-05-14T01:31:50;15.20;65.70
19039;DHT22;9652;49.014;12.052;2023-05-14T01:34:23;15.20;65.50
19039;DHT22;9652;49.014;12.052;2023-05-14T01:36:56;15.20;65.50
19039;DHT22;9652;49.014;12.052;2023-05-14T01:39:25;15.30;65.60
19039;DHT22;9652;49.014;12.052;2023-05-14T01:41:56;15.30;65.50
19039;DHT22;9652;49.014;12.052;2023-05-14T01:44:26;15.30;65.50
19039;DHT22;9652;49.014;12.052;2023-05-14T01:46:53;15.30;65.50
19039;DHT22;9652;49.014;12.052;2023-05-14T01:49:20;15.30;65.50
19039;DHT22;9652;49.014;12.052;2023-05-14T01:51:47;15.30;65.50
19039;DHT22;9652;49.014;12.052;2023-05-14T01:54:16;15.40;65.60
19039;DHT22;9652;49.014;12.052;2023-05-14T01:56:43;15.30;65.60
19039;DHT22;9652;49.014;12.052;2023-05-14T01:59:10;15.40;65.60
19039;DHT22;9652;49.014;12.052;2023-05-14T02:01:37;15.40;65.60
19039;DHT22;9652;49.014;12.052;2023-05-14T02:04:04;15.40;65.70
19039;DHT22;9652;49.014;12.052;2023-05-14T02:06:31;15.40;66.60
19039;DHT22;9652;49.014;12.052;2023-05-14T02:08:59;15.50;65.80
19039;DHT22;9652;49.014;12.052;2023-05-14T02:11:27;15.50;65.80
19039;DHT22;9652;49.014;12.052;2023-05-14T02:13:55;15.50;65.80
19039;DHT22;9652;49.014;12.052;2023-05-14T02:16:22;15.50;65.70
19039;DHT22;9652;49.014;12.052;2023-05-14T02:18:50;15.50;65.70
19039;DHT22;9652;49.014;12.052;2023-05-14T02:21:17;15.50;65.60
19039;DHT22;9652;49.014;12.052;2023-05-14T02:23:45;15.50;65.60
19039;DHT22;9652;49.014;12.052;2023-05-14T02:26:14;15.50;65.60
19039;DHT22;9652;49.014;12.052;2023-05-14T02:28:42;15.40;65.40
19039;DHT22;9652;49.014;12.052;2023-05-14T02:31:11;15.50;65.30
19039;DHT22;9652;49.014;12.052;2023-05-14T02:33:39;15.50;65.10
19039;DHT22;9652;49.014;12.052;2023-05-14T02:36:06;15.50;65.00
19039;DHT22;9652;49.014;12.052;2023-05-14T02:38:33;15.50;64.80
19039;DHT22;9652;49.014;12.052;2023-05-14T02:41:01;15.40;64.70
19039;DHT22;9652;49.014;12.052;2023-05-14T02:43:28;15.30;64.50
19039;DHT22;9652;49.014;12.052;2023-05-14T02:45:56;15.20;64.40
19039;DHT22;9652;49.014;12.052;2023-05-14T02:48:23;15.20;64.40
19039;DHT22;9652;49.014;12.052;2023-05-14T02:50:50;15.10;64.30
19039;DHT22;9652;49.014;12.052;2023-05-14T02:53:17;14.90;64.20
19039;DHT22;9652;49.014;12.052;2023-05-14T02:55:45;14.90;64.30
19039;DHT22;9652;49.014;12.052;2023-05-14T02:58:12;14.80;64.40
19039;DHT22;9652;49.014;12.052;2023-05-14T03:00:39;14.70;64.50
19039;DHT22;9652;49.014;12.052;2023-05-14T03:03:08;14.60;64.60
19039;DHT22;9652;49.014;12.052;2023-05-14T03:05:35;14.60;64.80
19039;DHT22;9652;49.014;12.052;2023-05-14T03:08:02;14.50;64.80
19039;DHT22;9652;49.014;12.052;2023-05-14T03:10:30;14.40;64.80
19039;DHT22;9652;49.014;12.052;2023-05-14T03:12:57;14.40;65.00
19039;DHT22;9652;49.014;12.052;2023-05-14T03:15:24;14.30;65.10
19039;DHT22;9652;49.014;12.052;2023-05-14T03:17:51;14.20;65.10
19039;DHT22;9652;49.014;12.052;2023-05-14T03:20:21;14.10;65.20
19039;DHT22;9652;49.014;12.052;2023-05-14T03:22:49;14.10;65.30
19039;DHT22;9652;49.014;12.052;2023-05-14T03:25:16;14.00;65.30
19039;DHT22;9652;49.014;12.052;2023-05-14T03:27:43;14.00;65.50
19039;DHT22;9652;49.014;12.052;2023-05-14T03:30:11;13.90;65.50
19039;DHT22;9652;49.014;12.052;2023-05-14T03:32:38;13.90;65.70
19039;DHT22;9652;49.014;12.052;2023-05-14T03:35:08;13.70;65.60
19039;DHT22;9652;49.014;12.052;2023-05-14T03:37:37;13.70;65.70
19039;DHT22;9652;49.014;12.052;2023-05-14T03:40:05;13.70;66.80
19039;DHT22;9652;49.014;12.052;2023-05-14T03:42:35;13.60;66.00
19039;DHT22;9652;49.014;12.052;2023-05-14T03:45:02;13.60;66.10
19039;DHT22;9652;49.014;12.052;2023-05-14T03:47:30;13.50;66.10
19039;DHT22;9652;49.014;12.052;2023-05-14T03:49:59;13.50;66.30
19039;DHT22;9652;49.014;12.052;2023-05-14T03:52:27;13.50;66.40
19039;DHT22;9652;49.014;12.052;2023-05-14T03:54:55;13.40;66.40
19039;DHT22;9652;49.014;12.052;2023-05-14T03:57:22;13.40;66.60
19039;DHT22;9652;49.014;12.052;2023-05-14T03:59:49;13.40;66.70
19039;DHT22;9652;49.014;12.052;2023-05-14T04:02:18;13.30;66.70
19039;DHT22;9652;49.014;12.052;2023-05-14T04:04:46;13.30;66.90
19039;DHT22;9652;49.014;12.052;2023-05-14T04:07:16;13.30;67.10
19039;DHT22;9652;49.014;12.052;2023-05-14T04:09:43;13.30;67.10
19039;DHT22;9652;49.014;12.052;2023-05-14T04:12:12;13.30;67.20
19039;DHT22;9652;49.014;12.052;2023-05-14T04:14:39;13.30;67.40
19039;DHT22;9652;49.014;12.052;2023-05-14T04:17:07;13.30;67.40
19039;DHT22;9652;49.014;12.052;2023-05-14T04:19:34;13.30;67.60
19039;DHT22;9652;49.014;12.052;2023-05-14T04:22:02;13.30;67.70
19039;DHT22;9652;49.014;12.052;2023-05-14T04:24:29;13.30;67.70
19039;DHT22;9652;49.014;12.052;2023-05-14T04:26:56;13.30;67.80
19039;DHT22;9652;49.014;12.052;2023-05-14T04:29:24;13.40;68.00
19039;DHT22;9652;49.014;12.052;2023-05-14T04:31:52;13.40;68.10
19039;DHT22;9652;49.014;12.052;2023-05-14T04:34:19;13.40;68.10
19039;DHT22;9652;49.014;12.052;2023-05-14T04:36:46;13.50;68.30
19039;DHT22;9652;49.014;12.052;2023-05-14T04:39:13;13.40;68.30
19039;DHT22;9652;49.014;12.052;2023-05-14T04:41:40;13.50;68.40
19039;DHT22;9652;49.014;12.052;2023-05-14T04:44:07;13.60;68.40
19039;DHT22;9652;49.014;12.052;2023-05-14T04:46:36;13.60;68.50
19039;DHT22;9652;49.014;12.052;2023-05-14T04:49:03;13.60;68.60
19039;DHT22;9652;49.014;12.052;2023-05-14T04:51:30;13.70;68.50
19039;DHT22;9652;49.014;12.052;2023-05-14T04:53:57;13.70;68.60
19039;DHT22;9652;49.014;12.052;2023-05-14T04:56:24;13.80;68.60
19039;DHT22;9652;49.014;12.052;2023-05-14T04:58:51;13.80;68.60
19039;DHT22;9652;49.014;12.052;2023-05-14T05:01:18;13.80;68.50
19039;DHT22;9652;49.014;12.052;2023-05-14T05:03:46;13.90;68.60
19039;DHT22;9652;49.014;12.052;2023-05-14T05:06:13;13.90;68.70
19039;DHT22;9652;49.014;12.052;2023-05-14T05:08:41;14.00;68.60
19039;DHT22;9652;49.014;12.052;2023-05-14T05:11:08;14.10;68.60
19039;DHT22;9652;49.014;12.052;2023-05-14T05:13:35;14.20;68.50
19039;DHT22;9652;49.014;12.052;2023-05-14T05:16:02;14.20;68.50
19039;DHT22;9652;49.014;12.052;2023-05-14T05:18:29;14.20;68.40
19039;DHT22;9652;49.014;12.052;2023-05-14T05:20:57;14.30;68.40
19039;DHT22;9652;49.014;12.052;2023-05-14T05:23:24;14.40;68.50
19039;DHT22;9652;49.014;12.052;2023-05-14T05:25:51;14.40;69.20
19039;DHT22;9652;49.014;12.052;2023-05-14T05:28:18;14.50;68.40
19039;DHT22;9652;49.014;12.052;2023-05-14T05:30:45;14.60;68.40
19039;DHT22;9652;49.014;12.052;2023-05-14T05:33:13;14.60;68.40
19039;DHT22;9652;49.014;12.052;2023-05-14T05:35:40;14.60;68.30
19039;DHT22;9652;49.014;12.052;2023-05-14T05:38:10;14.70;68.30
19039;DHT22;9652;49.014;12.052;2023-05-14T05:40:37;14.80;68.30
19039;DHT22;9652;49.014;12.052;2023-05-14T05:43:04;14.80;68.10
19039;DHT22;9652;49.014;12.052;2023-05-14T05:45:31;14.90;68.10
19039;DHT22;9652;49.014;12.052;2023-05-14T05:47:58;15.00;68.20
19039;DHT22;9652;49.014;12.052;2023-05-14T05:50:25;15.00;68.10
19039;DHT22;9652;49.014;12.052;2023-05-14T05:52:52;15.10;68.10
19039;DHT22;9652;49.014;12.052;2023-05-14T05:55:21;15.20;67.90
19039;DHT22;9652;49.014;12.052;2023-05-14T05:57:48;15.20;67.90
19039;DHT22;9652;49.014;12.052;2023-05-14T06:00:16;15.30;67.80
19039;DHT22;9652;49.014;12.052;2023-05-14T06:02:43;15.40;67.70
19039;DHT22;9652;49.014;12.052;2023-05-14T06:05:11;15.50;67.70
19039;DHT22;9652;49.014;12.052;2023-05-14T06:07:38;15.50;67.70
19039;DHT22;9652;49.014;12.052;2023-05-14T06:10:07;15.60;67.70
19039;DHT22;9652;49.014;12.052;2023-05-14T06:12:35;15.60;67.40
19039;DHT22;9652;49.014;12.052;2023-05-14T06:15:03;15.70;67.50
19039;DHT22;9652;49.014;12.052;2023-05-14T06:17:31;15.80;67.50
19039;DHT22;9652;49.014;12.052;2023-05-14T06:19:58;15.90;67.30
19039;DHT22;9652;49.014;12.052;2023-05-14T06:22:25;15.90;67.20
19039;DHT22;9652;49.014;12.052;2023-05-14T06:24:52;16.10;67.30
19039;DHT22;9652;49.014;12.052;2023-05-14T06:27:19;16.10;67.20
19039;DHT22;9652;49.014;12.052;2023-05-14T06:29:47;16.20;67.10
19039;DHT22;9652;49.014;12.052;2023-05-14T06:32:14;16.30;67.00
19039;DHT22;9652;49.014;12.052;2023-05-14T06:34:42;16.40;67.00
19039;DHT22;9652;49.014;12.052;2023-05-14T06:37:09;16.50;66.70
19039;DHT22;9652;49.014;12.052;2023-05-14T06:39:37;16.60;66.50
19039;DHT22;9652;49.014;12.052;2023-05-14T06:42:05;16.60;66.30
19039;DHT22;9652;49.014;12.052;2023-05-14T06:44:32;16.70;66.50
19039;DHT22;9652;49.014;12.052;2023-05-14T06:47:00;16.80;66.60
19039;DHT22;9652;49.014;12.052;2023-05-14T06:49:27;16.90;66.90
19039;DHT22;9652;49.014;12.052;2023-05-14T06:51:54;17.10;67.30
19039;DHT22;9652;49.014;12.052;2023-05-14T06:54:21;17.30;67.40
19039;DHT22;9652;49.014;12.052;2023-05-14T06:56:48;17.50;67.30
19039;DHT22;9652;49.014;12.052;2023-05-14T06:59:15;17.70;67.20
19039;DHT22;9652;49.014;12.052;2023-05-14T07:01:43;17.90;67.20
19039;DHT22;9652;49.014;12.052;2023-05-14T07:04:11;18.10;66.80
19039;DHT22;9652;49.014;12.052;2023-05-14T07:06:38;18.40;66.40
19039;DHT22;9652;49.014;12.052;2023-05-14T07:09:05;18.60;66.10
19039;DHT22;9652;49.014;12.052;2023-05-14T07:11:33;18.80;66.00
19039;DHT22;9652;49.014;12.052;2023-05-14T07:13:59;19.00;65.50
19039;DHT22;9652;49.014;12.052;2023-05-14T07:16:27;19.20;65.00
19039;DHT22;9652;49.014;12.052;2023-05-14T07:18:54;19.40;64.40
19039;DHT22;9652;49.014;12.052;2023-05-14T07:21:22;19.60;64.10
19039;DHT22;9652;49.014;12.052;2023-05-14T07:23:49;19.70;63.80
19039;DHT22;9652;49.014;12.052;2023-05-14T07:26:16;19.90;62.70
19039;DHT22;9652;49.014;12.052;2023-05-14T07:28:43;20.00;62.30
19039;DHT22;9652;49.014;12.052;2023-05-14T07:31:10;20.10;62.20
19039;DHT22;9652;49.014;12.052;2023-05-14T07:33:37;20.20;62.20
19039;DHT22;9652;49.014;12.052;2023-05-14T07:36:05;20.30;61.80
19039;DHT22;9652;49.014;12.052;2023-05-14T07:38:34;20.40;61.30
19039;DHT22;9652;49.014;12.052;2023-05-14T07:41:02;20.50;60.40
19039;DHT22;9652;49.014;12.052;2023-05-14T07:43:29;20.60;60.20
19039;DHT22;9652;49.014;12.052;2023-05-14T07:45:56;20.70;59.90
19039;DHT22;9652;49.014;12.052;2023-05-14T07:48:23;20.70;59.50
19039;DHT22;9652;49.014;12.052;2023-05-14T07:50:50;20.80;59.10
19039;DHT22;9652;49.014;12.052;2023-05-14T07:53:18;20.80;58.90
19039;DHT22;9652;49.014;12.052;2023-05-14T07:55:47;20.90;58.80
19039;DHT22;9652;49.014;12.052;2023-05-14T07:58:15;20.90;58.50
19039;DHT22;9652;49.014;12.052;2023-05-14T08:00:42;20.90;58.50
19039;DHT22;9652;49.014;12.052;2023-05-14T08:03:09;21.00;58.30
19039;DHT22;9652;49.014;12.052;2023-05-14T08:05:36;21.00;58.00
19039;DHT22;9652;49.014;12.052;2023-05-14T08:08:03;21.10;57.90
19039;DHT22;9652;49.014;12.052;2023-05-14T08:10:30;21.10;57.70
19039;DHT22;9652;49.014;12.052;2023-05-14T08:12:58;21.20;57.60
19039;DHT22;9652;49.014;12.052;2023-05-14T08:15:25;21.20;57.00
19039;DHT22;9652;49.014;12.052;2023-05-14T08:17:52;21.20;56.80
19039;DHT22;9652;49.014;12.052;2023-05-14T08:20:20;21.10;56.60
19039;DHT22;9652;49.014;12.052;2023-05-14T08:22:48;21.10;56.50
19039;DHT22;9652;49.014;12.052;2023-05-14T08:25:15;21.00;56.30
19039;DHT22;9652;49.014;12.052;2023-05-14T08:27:42;21.00;56.00
19039;DHT22;9652;49.014;12.052;2023-05-14T08:30:12;20.90;55.60
19039;DHT22;9652;49.014;12.052;2023-05-14T08:32:39;20.80;55.50
19039;DHT22;9652;49.014;12.052;2023-05-14T08:35:07;20.70;55.80
19039;DHT22;9652;49.014;12.052;2023-05-14T08:37:35;20.60;56.10
19039;DHT22;9652;49.014;12.052;2023-05-14T08:40:02;20.60;56.20
19039;DHT22;9652;49.014;12.052;2023-05-14T08:42:30;20.50;56.50
19039;DHT22;9652;49.014;12.052;2023-05-14T08:45:00;20.50;56.70
19039;DHT22;9652;49.014;12.052;2023-05-14T08:47:30;20.60;56.90
19039;DHT22;9652;49.014;12.052;2023-05-14T08:50:00;20.70;56.80
19039;DHT22;9652;49.014;12.052;2023-05-14T08:52:29;20.70;56.40
19039;DHT22;9652;49.014;12.052;2023-05-14T08:54:58;20.80;56.40
19039;DHT22;9652;49.014;12.052;2023-05-14T08:57:29;20.90;56.30
19039;DHT22;9652;49.014;12.052;2023-05-14T08:59:58;21.00;56.50
19039;DHT22;9652;49.014;12.052;2023-05-14T09:02:28;21.00;56.30
19039;DHT22;9652;49.014;12.052;2023-05-14T09:04:58;21.10;55.90
19039;DHT22;9652;49.014;12.052;2023-05-14T09:07:27;21.20;55.90
19039;DHT22;9652;49.014;12.052;2023-05-14T09:09:54;21.20;56.00
19039;DHT22;9652;49.014;12.052;2023-05-14T09:12:21;21.30;55.90
19039;DHT22;9652;49.014;12.052;2023-05-14T09:14:49;21.40;55.70
19039;DHT22;9652;49.014;12.052;2023-05-14T09:17:17;21.40;55.60
19039;DHT22;9652;49.014;12.052;2023-05-14T09:19:46;21.50;55.30
19039;DHT22;9652;49.014;12.052;2023-05-14T09:22:18;21.50;55.40
19039;DHT22;9652;49.014;12.052;2023-05-14T09:24:45;21.60;55.50
19039;DHT22;9652;49.014;12.052;2023-05-14T09:27:28;21.70;55.40
19039;DHT22;9652;49.014;12.052;2023-05-14T09:30:04;21.70;55.10
19039;DHT22;9652;49.014;12.052;2023-05-14T09:32:37;21.80;54.40
19039;DHT22;9652;49.014;12.052;2023-05-14T09:35:11;21.80;54.50
19039;DHT22;9652;49.014;12.052;2023-05-14T09:37:41;21.90;54.50
19039;DHT22;9652;49.014;12.052;2023-05-14T09:40:09;21.90;54.90
19039;DHT22;9652;49.014;12.052;2023-05-14T09:42:37;22.00;54.70
19039;DHT22;9652;49.014;12.052;2023-05-14T09:45:06;22.00;54.40
19039;DHT22;9652;49.014;12.052;2023-05-14T09:47:34;22.10;54.00
19039;DHT22;9652;49.014;12.052;2023-05-14T09:50:01;22.10;54.00
19039;DHT22;9652;49.014;12.052;2023-05-14T09:52:30;22.10;54.00
19039;DHT22;9652;49.014;12.052;2023-05-14T09:54:57;22.20;53.80
19039;DHT22;9652;49.014;12.052;2023-05-14T09:57:25;22.20;53.90
19039;DHT22;9652;49.014;12.052;2023-05-14T09:59:52;22.20;53.80
19039;DHT22;9652;49.014;12.052;2023-05-14T10:02:24;22.30;54.10
19039;DHT22;9652;49.014;12.052;2023-05-14T10:04:54;22.40;53.60
19039;DHT22;9652;49.014;12.052;2023-05-14T10:07:30;22.50;54.00
19039;DHT22;9652;49.014;12.052;2023-05-14T10:10:02;22.60;53.80
19039;DHT22;9652;49.014;12.052;2023-05-14T10:12:36;22.80;54.10
19039;DHT22;9652;49.014;12.052;2023-05-14T10:15:11;23.00;53.40
19039;DHT22;9652;49.014;12.052;2023-05-14T10:17:47;23.10;53.30
19039;DHT22;9652;49.014;12.052;2023-05-14T10:20:16;23.30;53.20
19039;DHT22;9652;49.014;12.052;2023-05-14T10:22:45;23.50;53.20
19039;DHT22;9652;49.014;12.052;2023-05-14T10:25:13;23.60;52.90
19039;DHT22;9652;49.014;12.052;2023-05-14T10:27:41;23.70;52.80
19039;DHT22;9652;49.014;12.052;2023-05-14T10:30:12;23.80;52.50
19039;DHT22;9652;49.014;12.052;2023-05-14T10:32:39;23.90;51.70
19039;DHT22;9652;49.014;12.052;2023-05-14T10:35:15;23.90;51.40
19039;DHT22;9652;49.014;12.052;2023-05-14T10:37:45;23.80;50.30
19039;DHT22;9652;49.014;12.052;2023-05-14T10:40:13;23.70;50.60
19039;DHT22;9652;49.014;12.052;2023-05-14T10:42:41;23.60;50.70
19039;DHT22;9652;49.014;12.052;2023-05-14T10:45:11;23.40;50.80
19039;DHT22;9652;49.014;12.052;2023-05-14T10:47:42;23.40;51.00
19039;DHT22;9652;49.014;12.052;2023-05-14T10:50:13;23.30;51.10
19039;DHT22;9652;49.014;12.052;2023-05-14T10:52:42;23.20;51.10
19039;DHT22;9652;49.014;12.052;2023-05-14T10:55:14;23.20;51.70
19039;DHT22;9652;49.014;12.052;2023-05-14T10:57:43;23.30;51.60
19039;DHT22;9652;49.014;12.052;2023-05-14T11:00:12;23.30;51.70
19039;DHT22;9652;49.014;12.052;2023-05-14T11:02:41;23.40;51.60
19039;DHT22;9652;49.014;12.052;2023-05-14T11:05:11;23.50;51.60
19039;DHT22;9652;49.014;12.052;2023-05-14T11:07:41;23.50;51.40
19039;DHT22;9652;49.014;12.052;2023-05-14T11:10:11;23.60;51.60
19039;DHT22;9652;49.014;12.052;2023-05-14T11:12:42;23.70;51.50
19039;DHT22;9652;49.014;12.052;2023-05-14T11:15:11;23.80;50.80
19039;DHT22;9652;49.014;12.052;2023-05-14T11:17:40;23.90;50.50
19039;DHT22;9652;49.014;12.052;2023-05-14T11:20:10;23.90;50.40
19039;DHT22;9652;49.014;12.052;2023-05-14T11:22:39;23.90;50.40
19039;DHT22;9652;49.014;12.052;2023-05-14T11:25:08;24.00;50.30
19039;DHT22;9652;49.014;12.052;2023-05-14T11:27:42;24.00;50.10
19039;DHT22;9652;49.014;12.052;2023-05-14T11:30:15;24.00;49.80
19039;DHT22;9652;49.014;12.052;2023-05-14T11:32:44;24.00;49.50
19039;DHT22;9652;49.014;12.052;2023-05-14T11:35:13;24.10;50.00
19039;DHT22;9652;49.014;12.052;2023-05-14T11:37:41;24.10;49.90
19039;DHT22;9652;49.014;12.052;2023-05-14T11:40:13;24.20;49.90
19039;DHT22;9652;49.014;12.052;2023-05-14T11:42:42;24.20;49.80
19039;DHT22;9652;49.014;12.052;2023-05-14T11:45:10;24.30;49.80
19039;DHT22;9652;49.014;12.052;2023-05-14T11:47:39;24.30;49.80
19039;DHT22;9652;49.014;12.052;2023-05-14T11:50:07;24.40;49.90
19039;DHT22;9652;49.014;12.052;2023-05-14T11:52:38;24.50;49.60
19039;DHT22;9652;49.014;12.052;2023-05-14T11:55:09;24.60;49.50
19039;DHT22;9652;49.014;12.052;2023-05-14T11:57:37;24.70;49.20
19039;DHT22;9652;49.014;12.052;2023-05-14T12:00:09;24.90;49.30
19039;DHT22;9652;49.014;12.052;2023-05-14T12:02:38;24.90;48.40
19039;DHT22;9652;49.014;12.052;2023-05-14T12:05:06;25.00;48.50
19039;DHT22;9652;49.014;12.052;2023-05-14T12:07:36;25.00;48.40
19039;DHT22;9652;49.014;12.052;2023-05-14T12:10:05;25.10;48.30
19039;DHT22;9652;49.014;12.052;2023-05-14T12:12:35;25.10;48.10
19039;DHT22;9652;49.014;12.052;2023-05-14T12:15:11;25.10;48.20
19039;DHT22;9652;49.014;12.052;2023-05-14T12:17:39;25.20;48.00
19039;DHT22;9652;49.014;12.052;2023-05-14T12:20:08;25.20;48.10
19039;DHT22;9652;49.014;12.052;2023-05-14T12:22:37;25.30;47.80
19039;DHT22;9652;49.014;12.052;2023-05-14T12:25:09;25.30;47.70
19039;DHT22;9652;49.014;12.052;2023-05-14T12:27:38;25.30;46.70
19039;DHT22;9652;49.014;12.052;2023-05-14T12:30:06;25.30;47.00
19039;DHT22;9652;49.014;12.052;2023-05-14T12:32:37;25.30;46.60
19039;DHT22;9652;49.014;12.052;2023-05-14T12:35:05;25.30;46.50
19039;DHT22;9652;49.014;12.052;2023-05-14T12:37:33;25.20;46.80
19039;DHT22;9652;49.014;12.052;2023-05-14T12:40:02;25.20;47.50
19039;DHT22;9652;49.014;12.052;2023-05-14T12:42:33;25.20;47.10
19039;DHT22;9652;49.014;12.052;2023-05-14T12:45:00;25.30;47.10
19039;DHT22;9652;49.014;12.052;2023-05-14T12:47:31;25.40;46.70
19039;DHT22;9652;49.014;12.052;2023-05-14T12:50:00;25.40;46.50
19039;DHT22;9652;49.014;12.052;2023-05-14T12:52:27;25.50;46.60
19039;DHT22;9652;49.014;12.052;2023-05-14T12:54:54;25.50;46.40
19039;DHT22;9652;49.014;12.052;2023-05-14T12:57:21;25.60;46.10
19039;DHT22;9652;49.014;12.052;2023-05-14T12:59:48;25.70;45.70
19039;DHT22;9652;49.014;12.052;2023-05-14T13:02:15;25.80;45.40
19039;DHT22;9652;49.014;12.052;2023-05-14T13:04:43;25.70;45.70
19039;DHT22;9652;49.014;12.052;2023-05-14T13:07:12;25.70;45.90
19039;DHT22;9652;49.014;12.052;2023-05-14T13:09:39;25.80;45.50
19039;DHT22;9652;49.014;12.052;2023-05-14T13:12:07;25.80;45.50
19039;DHT22;9652;49.014;12.052;2023-05-14T13:14:34;25.80;45.70
19039;DHT22;9652;49.014;12.052;2023-05-14T13:17:01;25.80;45.50
19039;DHT22;9652;49.014;12.052;2023-05-14T13:19:29;25.80;45.00
19039;DHT22;9652;49.014;12.052;2023-05-14T13:21:56;25.80;44.80
19039;DHT22;9652;49.014;12.052;2023-05-14T13:24:25;25.80;44.90
19039;DHT22;9652;49.014;12.052;2023-05-14T13:26:52;25.70;45.40
19039;DHT22;9652;49.014;12.052;2023-05-14T13:29:19;25.70;45.50
19039;DHT22;9652;49.014;12.052;2023-05-14T13:31:46;25.80;45.10
19039;DHT22;9652;49.014;12.052;2023-05-14T13:34:13;25.80;44.70
19039;DHT22;9652;49.014;12.052;2023-05-14T13:36:40;25.80;45.10
19039;DHT22;9652;49.014;12.052;2023-05-14T13:39:08;25.80;46.00
19039;DHT22;9652;49.014;12.052;2023-05-14T13:41:38;25.90;45.20
19039;DHT22;9652;49.014;12.052;2023-05-14T13:44:05;25.80;44.80
19039;DHT22;9652;49.014;12.052;2023-05-14T13:46:32;25.60;47.50
19039;DHT22;9652;49.014;12.052;2023-05-14T13:48:59;25.30;49.00
19039;DHT22;9652;49.014;12.052;2023-05-14T13:51:26;24.70;50.90
19039;DHT22;9652;49.014;12.052;2023-05-14T13:53:53;24.10;52.70
19039;DHT22;9652;49.014;12.052;2023-05-14T13:56:20;23.40;54.70
19039;DHT22;9652;49.014;12.052;2023-05-14T13:58:48;22.70;56.30
19039;DHT22;9652;49.014;12.052;2023-05-14T14:01:16;22.10;57.90
19039;DHT22;9652;49.014;12.052;2023-05-14T14:03:43;21.50;59.00
19039;DHT22;9652;49.014;12.052;2023-05-14T14:06:10;21.00;59.80
19039;DHT22;9652;49.014;12.052;2023-05-14T14:08:37;20.60;61.20
19039;DHT22;9652;49.014;12.052;2023-05-14T14:11:04;20.20;62.40
19039;DHT22;9652;49.014;12.052;2023-05-14T14:13:31;19.80;63.80
19039;DHT22;9652;49.014;12.052;2023-05-14T14:16:00;19.50;64.50
19039;DHT22;9652;49.014;12.052;2023-05-14T14:18:28;19.30;65.80
19039;DHT22;9652;49.014;12.052;2023-05-14T14:20:56;19.00;66.40
19039;DHT22;9652;49.014;12.052;2023-05-14T14:23:23;18.80;67.20
19039;DHT22;9652;49.014;12.052;2023-05-14T14:25:50;18.70;67.80
19039;DHT22;9652;49.014;12.052;2023-05-14T14:28:17;18.60;68.20
19039;DHT22;9652;49.014;12.052;2023-05-14T14:30:44;18.40;68.80
19039;DHT22;9652;49.014;12.052;2023-05-14T14:33:12;18.30;69.40
19039;DHT22;9652;49.014;12.052;2023-05-14T14:35:40;18.20;70.10
19039;DHT22;9652;49.014;12.052;2023-05-14T14:38:07;18.20;70.50
19039;DHT22;9652;49.014;12.052;2023-05-14T14:40:35;18.10;70.80
19039;DHT22;9652;49.014;12.052;2023-05-14T14:43:02;18.00;71.10
19039;DHT22;9652;49.014;12.052;2023-05-14T14:45:29;18.00;71.50
19039;DHT22;9652;49.014;12.052;2023-05-14T14:48:27;17.90;72.00
19039;DHT22;9652;49.014;12.052;2023-05-14T14:50:59;17.90;73.50
19039;DHT22;9652;49.014;12.052;2023-05-14T14:53:26;17.90;72.80
19039;DHT22;9652;49.014;12.052;2023-05-14T14:55:53;17.90;73.00
19039;DHT22;9652;49.014;12.052;2023-05-14T14:58:20;17.90;73.50
19039;DHT22;9652;49.014;12.052;2023-05-14T15:00:50;17.90;74.00
19039;DHT22;9652;49.014;12.052;2023-05-14T15:03:18;17.80;74.40
19039;DHT22;9652;49.014;12.052;2023-05-14T15:05:47;17.90;74.60
19039;DHT22;9652;49.014;12.052;2023-05-14T15:08:14;17.90;74.90
19039;DHT22;9652;49.014;12.052;2023-05-14T15:10:41;17.80;75.20
19039;DHT22;9652;49.014;12.052;2023-05-14T15:13:10;17.90;75.50
19039;DHT22;9652;49.014;12.052;2023-05-14T15:15:38;17.90;75.60
19039;DHT22;9652;49.014;12.052;2023-05-14T15:18:05;17.90;76.00
19039;DHT22;9652;49.014;12.052;2023-05-14T15:20:32;18.00;76.30
19039;DHT22;9652;49.014;12.052;2023-05-14T15:23:00;17.90;75.90
19039;DHT22;9652;49.014;12.052;2023-05-14T15:25:28;17.90;75.90
19039;DHT22;9652;49.014;12.052;2023-05-14T15:27:55;17.90;75.90
19039;DHT22;9652;49.014;12.052;2023-05-14T15:30:22;17.80;75.80
19039;DHT22;9652;49.014;12.052;2023-05-14T15:32:49;17.80;76.10
19039;DHT22;9652;49.014;12.052;2023-05-14T15:35:16;17.70;76.20
19039;DHT22;9652;49.014;12.052;2023-05-14T15:37:44;17.80;76.40